createdAt,value
2023-02-22T00:02:45.313Z,9.00
2023-02-22T00:05:33.611Z,9.00
2023-02-22T00:08:19.822Z,8.90
2023-02-22T00:11:10.603Z,8.90
2023-02-22T00:13:57.415Z,8.90
2023-02-22T00:16:43.104Z,8.90
2023-02-22T00:19:30.777Z,8.90
2023-02-22T00:22:19.042Z,8.90
2023-02-22T00:25:04.670Z,8.90
2023-02-22T00:27:59.204Z,8.90
2023-02-22T00:30:45.890Z,8.90
2023-02-22T00:33:34.722Z,8.70
2023-02-22T00:36:20.052Z,8.80
2023-02-22T00:39:09.496Z,8.80
2023-02-22T00:41:54.959Z,8.70
2023-02-22T00:44:40.835Z,8.60
2023-02-22T00:47:27.616Z,8.50
2023-02-22T00:50:13.927Z,8.60
2023-02-22T00:53:04.569Z,8.40
2023-02-22T00:55:51.348Z,8.40
2023-02-22T00:58:36.916Z,8.40
2023-02-22T01:01:24.118Z,8.40
2023-02-22T01:04:10.515Z,8.40
2023-02-22T01:06:58.867Z,8.30
2023-02-22T01:09:46.008Z,8.20
2023-02-22T01:12:36.108Z,8.20
2023-02-22T01:15:28.942Z,8.10
2023-02-22T01:18:17.486Z,8.10
2023-02-22T01:21:04.834Z,8.10
2023-02-22T01:23:55.077Z,8.10
2023-02-22T01:26:40.640Z,8.10
2023-02-22T01:29:26.372Z,8.10
2023-02-22T01:32:14.933Z,8.10
2023-02-22T01:35:02.830Z,8.00
2023-02-22T01:37:48.492Z,7.90
2023-02-22T01:40:37.515Z,7.90
2023-02-22T01:43:30.042Z,7.80
2023-02-22T01:46:27.382Z,7.80
2023-02-22T01:49:15.355Z,7.70
2023-02-22T01:52:05.763Z,7.70
2023-02-22T01:54:58.940Z,7.60
2023-02-22T01:57:46.014Z,7.60
2023-02-22T02:00:32.172Z,7.60
2023-02-22T02:03:27.508Z,7.70
2023-02-22T02:06:13.920Z,7.70
2023-02-22T02:09:13.209Z,7.70
2023-02-22T02:12:02.684Z,7.70
2023-02-22T02:14:49.200Z,7.60
2023-02-22T02:17:37.420Z,7.50
2023-02-22T02:20:26.554Z,7.50
2023-02-22T02:23:20.803Z,7.40
2023-02-22T02:26:37.185Z,7.40
2023-02-22T02:29:48.255Z,7.40
2023-02-22T02:32:45.679Z,7.40
2023-02-22T02:35:57.516Z,7.40
2023-02-22T02:39:06.745Z,7.40
2023-02-22T02:41:53.956Z,7.40
2023-02-22T02:45:02.624Z,7.30
2023-02-22T02:47:54.909Z,7.30
2023-02-22T02:50:56.737Z,7.40
2023-02-22T02:53:52.408Z,7.30
2023-02-22T02:56:37.789Z,7.20
2023-02-22T02:59:27.404Z,7.10
2023-02-22T03:02:45.158Z,7.10
2023-02-22T03:05:52.641Z,7.10
2023-02-22T03:08:57.254Z,7.20
2023-02-22T03:12:16.861Z,7.30
2023-02-22T03:15:44.277Z,7.30
2023-02-22T03:18:53.674Z,7.30
2023-02-22T03:22:00.825Z,7.30
2023-02-22T03:25:02.296Z,7.40
2023-02-22T03:28:02.952Z,7.40
2023-02-22T03:30:56.552Z,7.30
2023-02-22T03:33:47.681Z,7.30
2023-02-22T03:36:49.167Z,7.40
2023-02-22T03:39:38.278Z,7.30
2023-02-22T03:42:31.718Z,7.30
2023-02-22T03:45:20.190Z,7.20
2023-02-22T03:48:26.209Z,7.20
2023-02-22T03:51:17.307Z,7.20
2023-02-22T03:54:08.274Z,7.10
2023-02-22T03:57:09.140Z,7.10
2023-02-22T03:59:57.414Z,7.20
2023-02-22T04:02:43.057Z,7.20
2023-02-22T04:05:37.680Z,7.30
2023-02-22T04:08:25.342Z,7.30
2023-02-22T04:11:11.112Z,7.20
2023-02-22T04:14:00.133Z,7.30
2023-02-22T04:16:45.629Z,7.30
2023-02-22T04:19:31.165Z,7.30
2023-02-22T04:22:19.283Z,7.30
2023-02-22T04:25:05.288Z,7.30
2023-02-22T04:27:50.920Z,7.30
2023-02-22T04:30:39.696Z,7.30
2023-02-22T04:33:28.176Z,7.40
2023-02-22T04:36:16.005Z,7.40
2023-02-22T04:39:02.240Z,7.40
2023-02-22T04:41:48.804Z,7.40
2023-02-22T04:44:34.628Z,7.40
2023-02-22T04:47:23.634Z,7.40
2023-02-22T04:50:12.116Z,7.40
2023-02-22T04:53:03.223Z,7.40
2023-02-22T04:55:49.107Z,7.50
2023-02-22T04:58:35.433Z,7.40
2023-02-22T05:01:21.010Z,7.50
2023-02-22T05:04:07.763Z,7.50
2023-02-22T05:06:55.069Z,7.50
2023-02-22T05:09:40.759Z,7.60
2023-02-22T05:12:27.808Z,7.60
2023-02-22T05:15:25.403Z,7.50
2023-02-22T05:18:10.901Z,7.50
2023-02-22T05:20:56.669Z,7.50
2023-02-22T05:23:45.086Z,7.60
2023-02-22T05:26:30.703Z,7.60
2023-02-22T05:29:20.041Z,7.50
2023-02-22T05:32:06.897Z,7.50
2023-02-22T05:34:52.321Z,7.50
2023-02-22T05:37:37.962Z,7.50
2023-02-22T05:40:26.378Z,7.50
2023-02-22T05:43:11.595Z,7.50
2023-02-22T05:45:56.938Z,7.50
2023-02-22T05:48:42.692Z,7.40
2023-02-22T05:51:30.660Z,7.40
2023-02-22T05:54:15.932Z,7.50
2023-02-22T05:57:01.491Z,7.40
2023-02-22T05:59:46.908Z,7.40
2023-02-22T06:02:33.099Z,7.40
2023-02-22T06:05:18.723Z,7.50
2023-02-22T06:08:08.731Z,7.50
2023-02-22T06:10:55.241Z,7.50
2023-02-22T06:13:40.814Z,7.60
2023-02-22T06:16:29.702Z,7.60
2023-02-22T06:19:15.377Z,7.50
2023-02-22T06:22:07.809Z,7.60
2023-02-22T06:24:55.034Z,7.60
2023-02-22T06:27:40.834Z,7.50
2023-02-22T06:30:27.559Z,7.60
2023-02-22T06:33:13.029Z,7.60
2023-02-22T06:35:58.508Z,7.60
2023-02-22T06:38:43.924Z,7.60
2023-02-22T06:41:30.075Z,7.60
2023-02-22T06:44:21.427Z,7.60
2023-02-22T06:47:07.426Z,7.60
2023-02-22T06:49:55.217Z,7.60
2023-02-22T06:52:47.111Z,7.60
2023-02-22T06:55:34.552Z,7.70
2023-02-22T06:58:20.053Z,7.70
2023-02-22T07:01:11.535Z,7.70
2023-02-22T07:03:58.271Z,7.70
2023-02-22T07:06:48.562Z,7.70
2023-02-22T07:09:34.040Z,7.70
2023-02-22T07:12:21.592Z,7.80
2023-02-22T07:15:07.460Z,7.80
2023-02-22T07:17:52.989Z,7.80
2023-02-22T07:20:38.632Z,7.90
2023-02-22T07:23:24.252Z,7.90
2023-02-22T07:26:10.007Z,7.90
2023-02-22T07:28:55.805Z,7.90
2023-02-22T07:31:44.096Z,7.90
2023-02-22T07:34:32.137Z,7.90
2023-02-22T07:37:17.746Z,7.90
2023-02-22T07:40:04.107Z,7.90
2023-02-22T07:43:01.495Z,7.90
2023-02-22T07:45:48.763Z,7.90
2023-02-22T07:48:41.079Z,7.90
2023-02-22T07:51:29.468Z,7.90
2023-02-22T07:54:14.899Z,8.00
2023-02-22T07:57:00.451Z,8.00
2023-02-22T07:59:46.230Z,8.00
2023-02-22T08:02:34.520Z,8.10
2023-02-22T08:05:21.479Z,8.10
2023-02-22T08:08:08.116Z,8.20
2023-02-22T08:10:53.646Z,8.30
2023-02-22T08:13:39.600Z,8.30
2023-02-22T08:16:25.282Z,8.40
2023-02-22T08:19:10.453Z,8.40
2023-02-22T08:21:57.260Z,8.50
2023-02-22T08:24:45.776Z,8.50
2023-02-22T08:27:31.538Z,8.50
2023-02-22T08:30:23.821Z,8.60
2023-02-22T08:33:10.320Z,8.60
2023-02-22T08:35:55.974Z,8.70
2023-02-22T08:38:41.622Z,8.70
2023-02-22T08:41:26.641Z,8.70
2023-02-22T08:44:12.984Z,8.70
2023-02-22T08:46:58.773Z,8.80
2023-02-22T08:49:44.896Z,8.90
2023-02-22T08:52:31.343Z,9.00
2023-02-22T08:55:20.185Z,9.10
2023-02-22T08:58:09.415Z,9.20
2023-02-22T09:00:54.983Z,9.30
2023-02-22T09:03:40.657Z,9.30
2023-02-22T09:06:26.272Z,9.40
2023-02-22T09:09:11.707Z,9.40
2023-02-22T09:11:57.245Z,9.50
2023-02-22T09:14:43.106Z,9.60
2023-02-22T09:17:28.593Z,9.60
2023-02-22T09:20:17.782Z,9.50
2023-02-22T09:23:07.239Z,9.50
2023-02-22T09:25:55.498Z,9.60
2023-02-22T09:28:40.929Z,9.70
2023-02-22T09:31:29.209Z,9.70
2023-02-22T09:34:15.502Z,9.80
2023-02-22T09:37:01.619Z,9.90
2023-02-22T09:39:47.230Z,9.90
2023-02-22T09:42:42.170Z,10.00
2023-02-22T09:46:03.497Z,10.10
2023-02-22T09:48:51.561Z,10.20
2023-02-22T09:51:45.389Z,10.40
2023-02-22T09:55:18.009Z,10.40
2023-02-22T09:58:26.363Z,10.50
2023-02-22T10:01:23.172Z,10.60
2023-02-22T10:04:41.921Z,10.60
2023-02-22T10:07:45.559Z,10.60
2023-02-22T10:10:34.899Z,10.50
2023-02-22T10:13:42.346Z,10.30
2023-02-22T10:16:43.242Z,10.40
2023-02-22T10:19:45.844Z,10.50
2023-02-22T10:23:02.479Z,10.60
2023-02-22T10:25:53.226Z,10.80
2023-02-22T10:28:46.210Z,11.00
2023-02-22T10:31:41.298Z,11.20
2023-02-22T10:34:33.421Z,11.40
2023-02-22T10:37:45.404Z,11.30
2023-02-22T10:40:34.796Z,11.10
2023-02-22T10:43:22.430Z,11.10
2023-02-22T10:46:13.849Z,11.10
2023-02-22T10:49:04.806Z,10.90
2023-02-22T10:52:03.171Z,10.90
2023-02-22T10:54:51.855Z,11.00
2023-02-22T10:57:37.845Z,11.00
2023-02-22T11:00:29.441Z,11.10
2023-02-22T11:03:21.112Z,11.20
2023-02-22T11:06:21.742Z,11.30
2023-02-22T11:09:17.994Z,11.30
2023-02-22T11:12:16.727Z,11.20
2023-02-22T11:15:28.158Z,11.20
2023-02-22T11:18:27.822Z,11.30
2023-02-22T11:21:16.524Z,11.60
2023-02-22T11:24:08.824Z,11.70
2023-02-22T11:26:57.923Z,11.70
2023-02-22T11:29:43.722Z,11.80
2023-02-22T11:32:36.538Z,11.70
2023-02-22T11:35:28.171Z,11.80
2023-02-22T11:38:21.807Z,11.90
2023-02-22T11:41:19.246Z,12.00
2023-02-22T11:44:14.002Z,12.00
2023-02-22T11:47:06.872Z,12.00
2023-02-22T11:49:53.584Z,12.00
2023-02-22T11:52:44.735Z,11.90
2023-02-22T11:55:43.597Z,11.90
2023-02-22T11:58:48.473Z,11.80
2023-02-22T12:02:00.283Z,11.80
2023-02-22T12:05:10.889Z,11.90
2023-02-22T12:08:19.941Z,12.00
2023-02-22T12:11:22.207Z,12.20
2023-02-22T12:14:19.208Z,12.20
2023-02-22T12:17:26.155Z,12.20
2023-02-22T12:20:25.772Z,12.30
2023-02-22T12:23:20.683Z,12.30
2023-02-22T12:26:13.372Z,12.40
2023-02-22T12:29:14.479Z,12.50
2023-02-22T12:32:21.969Z,12.50
2023-02-22T12:35:11.002Z,12.60
2023-02-22T12:38:26.582Z,12.70
2023-02-22T12:41:33.500Z,12.50
2023-02-22T12:44:25.741Z,12.60
2023-02-22T12:47:18.445Z,12.60
2023-02-22T12:50:15.900Z,12.50
2023-02-22T12:53:13.483Z,12.40
2023-02-22T12:56:20.078Z,12.50
2023-02-22T12:59:42.661Z,12.50
2023-02-22T13:02:51.081Z,12.40
2023-02-22T13:05:39.696Z,12.40
2023-02-22T13:08:59.234Z,12.40
2023-02-22T13:12:03.099Z,12.30
2023-02-22T13:15:14.560Z,12.40
2023-02-22T13:18:18.474Z,12.30
2023-02-22T13:21:14.958Z,12.30
2023-02-22T13:24:25.865Z,12.20
2023-02-22T13:27:26.335Z,12.20
2023-02-22T13:30:33.133Z,12.20
2023-02-22T13:33:51.430Z,12.20
2023-02-22T13:36:48.734Z,12.20
2023-02-22T13:39:47.381Z,12.20
2023-02-22T13:43:01.348Z,12.10
2023-02-22T13:45:53.117Z,12.20
2023-02-22T13:49:06.766Z,12.20
2023-02-22T13:52:08.129Z,12.20
2023-02-22T13:54:58.170Z,12.30
2023-02-22T13:57:48.904Z,12.30
2023-02-22T14:00:47.430Z,12.20
2023-02-22T14:03:40.390Z,12.20
2023-02-22T14:06:43.611Z,12.20
2023-02-22T14:09:48.354Z,12.30
2023-02-22T14:12:36.739Z,12.50
2023-02-22T14:15:31.225Z,12.50
2023-02-22T14:18:24.938Z,12.60
2023-02-22T14:21:20.626Z,12.60
2023-02-22T14:24:15.795Z,12.60
2023-02-22T14:27:07.131Z,12.60
2023-02-22T14:29:55.479Z,12.50
2023-02-22T14:32:41.399Z,12.50
2023-02-22T14:35:49.514Z,12.40
2023-02-22T14:38:35.896Z,12.40
2023-02-22T14:41:30.058Z,12.30
2023-02-22T14:44:23.328Z,12.30
2023-02-22T14:47:21.001Z,12.20
2023-02-22T14:50:14.977Z,12.10
2023-02-22T14:53:12.054Z,12.10
2023-02-22T14:56:02.566Z,12.10
2023-02-22T14:58:55.091Z,12.10
2023-02-22T15:01:58.447Z,12.00
2023-02-22T15:04:56.375Z,12.00
2023-02-22T15:08:00.938Z,12.10
2023-02-22T15:10:48.463Z,12.10
2023-02-22T15:13:34.410Z,12.10
2023-02-22T15:16:22.232Z,12.00
2023-02-22T15:19:21.366Z,11.90
2023-02-22T15:22:30.086Z,12.00
2023-02-22T15:25:23.967Z,11.90
2023-02-22T15:28:15.093Z,11.90
2023-02-22T15:31:30.980Z,11.80
2023-02-22T15:34:17.011Z,11.70
2023-02-22T15:37:20.264Z,11.70
2023-02-22T15:40:14.684Z,11.60
2023-02-22T15:43:24.229Z,11.60
2023-02-22T15:46:12.495Z,11.60
2023-02-22T15:49:10.437Z,11.60
2023-02-22T15:52:06.476Z,11.60
2023-02-22T15:54:52.551Z,11.60
2023-02-22T15:57:39.619Z,11.60
2023-02-22T16:00:38.531Z,11.60
2023-02-22T16:03:28.370Z,11.50
2023-02-22T16:06:36.709Z,11.50
2023-02-22T16:09:27.307Z,11.50
2023-02-22T16:12:21.852Z,11.50
2023-02-22T16:15:17.849Z,11.50
2023-02-22T16:18:26.804Z,11.40
2023-02-22T16:21:21.603Z,11.40
2023-02-22T16:24:27.786Z,11.40
2023-02-22T16:27:14.611Z,11.40
2023-02-22T16:30:18.699Z,11.40
2023-02-22T16:33:16.493Z,11.40
2023-02-22T16:36:06.329Z,11.30
2023-02-22T16:38:52.441Z,11.30
2023-02-22T16:41:40.480Z,11.30
2023-02-22T16:44:26.862Z,11.20
2023-02-22T16:47:12.655Z,11.20
2023-02-22T16:50:00.734Z,11.10
2023-02-22T16:53:00.812Z,11.10
2023-02-22T16:55:48.312Z,11.10
2023-02-22T16:58:37.110Z,11.10
2023-02-22T17:01:25.258Z,11.10
2023-02-22T17:04:24.219Z,11.00
2023-02-22T17:07:14.957Z,11.00
2023-02-22T17:10:00.330Z,11.00
2023-02-22T17:12:53.222Z,11.00
2023-02-22T17:15:41.873Z,11.00
2023-02-22T17:18:30.230Z,11.00
2023-02-22T17:21:16.635Z,10.90
2023-02-22T17:24:02.184Z,10.90
2023-02-22T17:26:50.326Z,10.80
2023-02-22T17:29:35.817Z,10.80
2023-02-22T17:32:21.524Z,10.80
2023-02-22T17:35:09.616Z,10.80
2023-02-22T17:37:58.238Z,10.70
2023-02-22T17:40:43.677Z,10.70
2023-02-22T17:43:29.456Z,10.60
2023-02-22T17:46:15.777Z,10.60
2023-02-22T17:49:01.869Z,10.50
2023-02-22T17:51:49.682Z,10.40
2023-02-22T17:54:35.117Z,10.40
2023-02-22T17:57:21.502Z,10.30
2023-02-22T18:00:12.472Z,10.30
2023-02-22T18:03:07.719Z,10.40
2023-02-22T18:05:59.418Z,10.30
2023-02-22T18:08:45.165Z,10.30
2023-02-22T18:11:33.338Z,10.30
2023-02-22T18:14:21.577Z,10.40
2023-02-22T18:17:07.299Z,10.40
2023-02-22T18:19:52.870Z,10.40
2023-02-22T18:22:45.544Z,10.50
2023-02-22T18:25:33.069Z,10.50
2023-02-22T18:28:20.278Z,10.50
2023-02-22T18:31:14.478Z,10.50
2023-02-22T18:34:00.296Z,10.50
2023-02-22T18:36:45.821Z,10.50
2023-02-22T18:39:40.013Z,10.50
2023-02-22T18:42:27.370Z,10.50
2023-02-22T18:45:13.151Z,10.50
2023-02-22T18:48:01.447Z,10.50
2023-02-22T18:50:46.792Z,10.50
2023-02-22T18:53:32.790Z,10.50
2023-02-22T18:56:22.873Z,10.50
2023-02-22T18:59:12.142Z,10.50
2023-02-22T19:01:57.761Z,10.50
2023-02-22T19:04:45.259Z,10.50
2023-02-22T19:07:30.744Z,10.50
2023-02-22T19:10:16.770Z,10.40
2023-02-22T19:13:02.009Z,10.40
2023-02-22T19:15:50.527Z,10.40
2023-02-22T19:18:40.052Z,10.40
2023-02-22T19:21:33.357Z,10.20
2023-02-22T19:24:22.127Z,10.20
2023-02-22T19:27:07.997Z,10.10
2023-02-22T19:30:03.386Z,10.00
2023-02-22T19:32:50.035Z,10.00
2023-02-22T19:35:36.089Z,10.00
2023-02-22T19:38:24.562Z,10.00
2023-02-22T19:41:17.681Z,10.00
2023-02-22T19:44:04.327Z,10.00
2023-02-22T19:46:49.824Z,10.00
2023-02-22T19:49:36.868Z,9.90
2023-02-22T19:52:25.324Z,9.90
2023-02-22T19:55:12.915Z,10.00
2023-02-22T19:57:58.474Z,9.90
2023-02-22T20:00:44.232Z,9.90
2023-02-22T20:03:34.902Z,9.90
2023-02-22T20:06:33.400Z,9.90
2023-02-22T20:09:23.224Z,9.90
2023-02-22T20:12:08.731Z,9.90
2023-02-22T20:14:55.342Z,9.90
2023-02-22T20:17:50.444Z,9.90
2023-02-22T20:20:41.783Z,9.90
2023-02-22T20:23:28.849Z,10.00
2023-02-22T20:26:18.208Z,9.90
2023-02-22T20:29:04.663Z,9.90
2023-02-22T20:31:53.805Z,9.80
2023-02-22T20:34:39.416Z,9.80
2023-02-22T20:37:25.316Z,9.80
2023-02-22T20:40:23.249Z,9.80
2023-02-22T20:43:09.725Z,9.80
2023-02-22T20:46:02.427Z,9.80
2023-02-22T20:48:59.252Z,9.80
2023-02-22T20:51:46.656Z,9.80
2023-02-22T20:54:34.412Z,9.80
2023-02-22T20:57:20.046Z,9.80
2023-02-22T21:00:10.395Z,9.70
2023-02-22T21:02:59.290Z,9.80
2023-02-22T21:05:47.966Z,9.80
2023-02-22T21:08:33.447Z,9.80
2023-02-22T21:11:19.860Z,9.80
2023-02-22T21:14:06.530Z,9.80
2023-02-22T21:16:52.790Z,9.80
2023-02-22T21:19:39.493Z,9.80
2023-02-22T21:22:25.652Z,9.80
2023-02-22T21:25:11.984Z,9.80
2023-02-22T21:27:59.682Z,9.80
2023-02-22T21:30:46.578Z,9.70
2023-02-22T21:33:32.158Z,9.80
2023-02-22T21:36:18.540Z,9.80
2023-02-22T21:39:17.906Z,9.80
2023-02-22T21:42:07.133Z,9.80
2023-02-22T21:44:56.122Z,9.80
2023-02-22T21:47:47.788Z,9.80
2023-02-22T21:50:37.675Z,9.80
2023-02-22T21:53:23.726Z,9.80
2023-02-22T21:56:09.211Z,9.80
2023-02-22T21:59:06.093Z,9.80
2023-02-22T22:01:55.578Z,9.90
2023-02-22T22:04:41.379Z,9.90
2023-02-22T22:07:29.869Z,9.90
2023-02-22T22:10:18.631Z,9.90
2023-02-22T22:13:09.081Z,9.90
2023-02-22T22:15:54.534Z,10.00
2023-02-22T22:18:52.323Z,9.90
2023-02-22T22:21:38.062Z,9.90
2023-02-22T22:24:23.969Z,9.90
2023-02-22T22:27:12.514Z,10.00
2023-02-22T22:30:00.844Z,9.90
2023-02-22T22:32:50.378Z,10.00
2023-02-22T22:35:41.874Z,10.00
2023-02-22T22:38:29.064Z,10.00
2023-02-22T22:41:17.177Z,10.00
2023-02-22T22:44:02.722Z,10.00
2023-02-22T22:46:55.049Z,10.00
2023-02-22T22:49:40.600Z,10.00
2023-02-22T22:52:31.365Z,10.00
2023-02-22T22:55:16.993Z,10.00
2023-02-22T22:58:05.398Z,10.00
2023-02-22T23:00:59.929Z,10.00
2023-02-22T23:04:01.338Z,10.00
2023-02-22T23:06:52.338Z,10.00
2023-02-22T23:09:41.776Z,10.00
2023-02-22T23:12:31.539Z,9.90
2023-02-22T23:15:18.057Z,9.90
2023-02-22T23:18:03.828Z,10.00
2023-02-22T23:20:55.042Z,9.90
2023-02-22T23:23:41.312Z,10.00
2023-02-22T23:26:27.095Z,10.00
2023-02-22T23:29:12.387Z,9.90
2023-02-22T23:31:58.714Z,10.00
2023-02-22T23:34:44.159Z,10.00
2023-02-22T23:37:35.484Z,10.00
2023-02-22T23:40:21.061Z,10.00
2023-02-22T23:43:07.639Z,10.00
2023-02-22T23:45:57.346Z,10.00
2023-02-22T23:48:48.305Z,10.00
2023-02-22T23:51:39.706Z,10.00
2023-02-22T23:54:24.878Z,10.00
2023-02-22T23:57:10.573Z,10.00
2023-02-22T23:59:56.320Z,10.00
